Time;durP1;ratioP1;P1;durP2;ratioP2;P2;SDS_P1;SDS_P2;PMS_P1;PMS_P2;Temp;Humidity;BMP_temperature;BMP_pressure;BME280_temperature;BME280_humidity;BME280_pressure;Samples;Min_cycle;Max_cycle;Signal;HPM_P1;HPM_P2
2021/07/30 00:02:14;;;;;;;9.17;8.10;;;15.70;99.90;;;;;;4934146;29;20219;-75
2021/07/30 00:04:41;;;;;;;9.40;8.60;;;15.60;99.90;;;;;;4932654;29;20703;-75
2021/07/30 00:07:08;;;;;;;10.63;9.83;;;15.60;99.90;;;;;;4932144;29;20218;-75
2021/07/30 00:09:36;;;;;;;11.43;10.40;;;15.60;99.90;;;;;;4933580;29;20203;-75
2021/07/30 00:12:04;;;;;;;11.43;10.33;;;15.60;99.90;;;;;;4936443;29;20275;-75
2021/07/30 00:14:31;;;;;;;10.87;9.97;;;15.60;99.90;;;;;;4936297;29;20213;-75
2021/07/30 00:16:58;;;;;;;11.70;10.73;;;15.60;99.90;;;;;;4935459;29;20242;-75
2021/07/30 00:19:25;;;;;;;11.37;10.47;;;15.60;99.90;;;;;;4952332;28;20202;-75
2021/07/30 00:21:52;;;;;;;11.70;10.60;;;15.70;99.90;;;;;;4954135;23;20241;-76
2021/07/30 00:24:19;;;;;;;11.07;10.07;;;15.70;99.90;;;;;;4956522;29;20218;-76
2021/07/30 00:26:48;;;;;;;11.90;10.73;;;15.70;99.90;;;;;;4957271;29;20713;-76
2021/07/30 00:29:15;;;;;;;11.27;10.27;;;15.70;99.90;;;;;;4956672;29;21361;-76
2021/07/30 00:31:42;;;;;;;10.53;9.63;;;15.80;99.90;;;;;;4957070;29;20246;-77
2021/07/30 00:34:08;;;;;;;10.70;9.63;;;15.80;99.90;;;;;;4931308;29;20203;-76
2021/07/30 00:36:35;;;;;;;10.53;9.63;;;15.80;99.90;;;;;;4924495;29;20211;-77
2021/07/30 00:39:02;;;;;;;9.50;8.70;;;15.70;99.90;;;;;;4931608;29;20206;-76
2021/07/30 00:41:35;;;;;;;11.53;10.53;;;15.70;99.90;;;;;;4931441;29;20680;-77
2021/07/30 00:44:03;;;;;;;9.27;8.37;;;15.60;99.90;;;;;;4935739;29;20256;-76
2021/07/30 00:46:30;;;;;;;11.10;10.10;;;15.60;99.90;;;;;;4938919;29;20198;-77
2021/07/30 00:48:57;;;;;;;10.90;10.00;;;15.50;99.90;;;;;;4939030;28;20249;-76
2021/07/30 00:51:24;;;;;;;11.80;10.70;;;15.50;99.90;;;;;;4934771;29;20203;-76
2021/07/30 00:53:52;;;;;;;12.03;10.83;;;15.50;99.90;;;;;;4934239;29;20313;-76
2021/07/30 00:56:18;;;;;;;11.87;10.87;;;15.50;99.90;;;;;;4932190;29;20200;-76
2021/07/30 00:58:46;;;;;;;12.27;11.07;;;15.40;99.90;;;;;;4933237;29;20281;-76
2021/07/30 01:01:15;;;;;;;11.87;10.93;;;15.40;99.90;;;;;;4938422;29;20184;-76
2021/07/30 01:03:42;;;;;;;11.70;10.70;;;15.40;99.90;;;;;;4937612;29;20247;-77
2021/07/30 01:06:08;;;;;;;12.43;11.43;;;15.50;99.90;;;;;;4950941;28;20211;-77
2021/07/30 01:08:37;;;;;;;11.73;10.73;;;15.40;99.90;;;;;;4948389;29;20224;-76
2021/07/30 01:11:04;;;;;;;12.23;11.17;;;15.40;99.90;;;;;;4941207;29;20265;-76
2021/07/30 01:13:31;;;;;;;11.80;10.80;;;15.40;99.90;;;;;;4936406;29;20266;-76
2021/07/30 01:15:58;;;;;;;12.73;11.67;;;15.40;99.90;;;;;;4945568;28;20198;-77
2021/07/30 01:18:26;;;;;;;12.63;11.63;;;15.30;99.90;;;;;;4941967;29;20191;-76
2021/07/30 01:21:02;;;;;;;11.83;10.87;;;15.30;99.90;;;;;;4938465;29;20199;-76
2021/07/30 01:23:30;;;;;;;11.63;10.73;;;15.30;99.90;;;;;;4941981;29;20226;-77
2021/07/30 01:25:57;;;;;;;11.20;10.40;;;15.20;99.90;;;;;;4942465;29;20227;-77
2021/07/30 01:28:28;;;;;;;12.17;11.17;;;15.20;99.90;;;;;;4940661;29;20687;-77
2021/07/30 01:30:55;;;;;;;11.87;10.97;;;15.10;99.90;;;;;;4936660;28;20531;-76
2021/07/30 01:33:22;;;;;;;11.83;10.87;;;15.10;99.90;;;;;;4942564;29;20224;-77
2021/07/30 01:35:48;;;;;;;12.23;11.13;;;15.10;99.90;;;;;;4941332;29;20196;-76
2021/07/30 01:38:16;;;;;;;12.13;10.90;;;15.00;99.90;;;;;;4943213;28;20235;-76
2021/07/30 01:40:44;;;;;;;11.90;11.00;;;15.00;99.90;;;;;;4944193;29;20209;-76
2021/07/30 01:43:11;;;;;;;12.23;11.20;;;14.90;99.90;;;;;;4939812;29;20226;-76
2021/07/30 01:45:37;;;;;;;11.67;10.77;;;14.90;99.90;;;;;;4940108;29;20655;-77
2021/07/30 01:48:05;;;;;;;12.70;11.50;;;14.90;99.90;;;;;;4941818;29;20222;-77
2021/07/30 01:50:32;;;;;;;12.00;11.10;;;14.90;99.90;;;;;;4947502;29;20206;-77
2021/07/30 01:52:59;;;;;;;11.97;10.97;;;14.80;99.90;;;;;;4937950;29;20229;-76
2021/07/30 01:55:25;;;;;;;12.10;10.83;;;14.80;99.90;;;;;;4943873;28;20198;-76
2021/07/30 01:57:53;;;;;;;12.50;11.40;;;14.70;99.90;;;;;;4941180;29;20204;-76
2021/07/30 02:00:20;;;;;;;12.73;11.63;;;14.70;99.90;;;;;;4936834;29;20262;-77
2021/07/30 02:02:47;;;;;;;11.50;10.60;;;14.70;99.90;;;;;;4945178;29;20229;-76
2021/07/30 02:05:14;;;;;;;13.00;11.77;;;14.60;99.90;;;;;;4938801;29;20218;-77
2021/07/30 02:07:44;;;;;;;12.97;11.97;;;14.60;99.90;;;;;;4939184;29;20227;-76
2021/07/30 02:10:11;;;;;;;12.67;11.67;;;14.50;99.90;;;;;;4933804;29;20896;-76
2021/07/30 02:15:22;;;;;;;12.80;11.80;;;14.40;99.90;;;;;;4941677;29;20212;-76
2021/07/30 02:17:48;;;;;;;12.63;11.53;;;14.40;99.90;;;;;;4934074;28;20615;-76
2021/07/30 02:20:16;;;;;;;13.03;11.93;;;14.40;99.90;;;;;;4941420;29;20210;-77
2021/07/30 02:22:43;;;;;;;13.03;11.67;;;14.40;99.90;;;;;;4939518;29;20721;-76
2021/07/30 02:25:11;;;;;;;13.50;12.30;;;14.40;99.90;;;;;;4941008;28;20207;-76
2021/07/30 02:27:37;;;;;;;13.03;11.83;;;14.40;99.90;;;;;;4941519;29;20218;-76
2021/07/30 02:30:05;;;;;;;12.57;11.47;;;14.30;99.90;;;;;;4937860;29;20205;-76
2021/07/30 02:32:33;;;;;;;12.73;11.73;;;14.30;99.90;;;;;;4941549;29;20233;-76
2021/07/30 02:35:00;;;;;;;12.90;11.77;;;14.30;99.90;;;;;;4928339;28;20202;-75
2021/07/30 02:37:27;;;;;;;12.37;11.37;;;14.30;99.90;;;;;;4940600;28;20718;-76
2021/07/30 02:39:53;;;;;;;10.83;9.10;;;14.30;99.90;;;;;;4943133;28;20201;-79
2021/07/30 02:42:20;;;;;;;7.70;6.70;;;14.30;99.90;;;;;;4937996;29;20262;-78
2021/07/30 02:44:47;;;;;;;9.30;6.43;;;14.30;99.90;;;;;;4934164;29;20194;-81
2021/07/30 02:47:14;;;;;;;8.20;6.87;;;14.20;99.90;;;;;;4934729;29;20206;-80
2021/07/30 02:49:42;;;;;;;7.43;6.63;;;14.20;99.90;;;;;;4942678;29;20206;-80
2021/07/30 02:52:09;;;;;;;8.13;6.93;;;14.20;99.90;;;;;;4938257;29;20226;-80
2021/07/30 02:54:36;;;;;;;7.90;6.67;;;14.20;99.90;;;;;;4926585;29;20206;-79
2021/07/30 02:57:03;;;;;;;8.43;6.63;;;14.10;99.90;;;;;;4922544;29;20411;-79
2021/07/30 02:59:29;;;;;;;9.57;6.83;;;14.10;99.90;;;;;;4923732;29;20202;-80
2021/07/30 03:01:56;;;;;;;13.23;12.23;;;14.10;99.90;;;;;;4919093;29;20195;-80
2021/07/30 03:04:23;;;;;;;13.47;12.37;;;14.10;99.90;;;;;;4918524;29;20202;-79
2021/07/30 03:06:51;;;;;;;12.70;11.70;;;14.10;99.90;;;;;;4924911;29;20619;-80
2021/07/30 03:09:18;;;;;;;13.30;12.20;;;14.00;99.90;;;;;;4918484;29;20222;-79
2021/07/30 03:11:45;;;;;;;12.67;11.67;;;14.00;99.90;;;;;;4919307;29;20197;-80
2021/07/30 03:14:12;;;;;;;12.57;11.57;;;14.00;99.90;;;;;;4920983;29;20754;-79
2021/07/30 03:16:38;;;;;;;13.53;12.43;;;13.90;99.90;;;;;;4928914;29;20199;-80
2021/07/30 03:19:05;;;;;;;13.33;12.10;;;13.80;99.90;;;;;;4943167;28;20200;-78
2021/07/30 03:21:32;;;;;;;13.73;12.47;;;13.80;99.90;;;;;;4925743;29;20597;-78
2021/07/30 03:24:00;;;;;;;13.77;12.57;;;13.80;99.90;;;;;;4931037;29;20315;-80
2021/07/30 03:26:27;;;;;;;14.20;12.70;;;13.80;99.90;;;;;;4934459;29;20201;-75
2021/07/30 03:28:54;;;;;;;13.90;12.67;;;13.70;99.90;;;;;;4933132;29;20207;-76
2021/07/30 03:31:21;;;;;;;13.80;12.70;;;13.70;99.90;;;;;;4937311;29;20220;-76
2021/07/30 03:33:47;;;;;;;14.00;12.80;;;13.70;99.90;;;;;;4925989;29;20222;-78
2021/07/30 03:36:14;;;;;;;12.67;11.67;;;13.60;99.90;;;;;;4929751;29;20188;-76
2021/07/30 03:38:41;;;;;;;13.43;12.17;;;13.60;99.90;;;;;;4933353;29;20203;-76
2021/07/30 03:41:09;;;;;;;13.33;12.03;;;13.60;99.90;;;;;;4943500;29;20204;-76
2021/07/30 03:43:36;;;;;;;13.03;11.97;;;13.60;99.90;;;;;;4934566;28;20225;-77
2021/07/30 03:46:03;;;;;;;13.27;12.20;;;13.60;99.90;;;;;;4937480;29;20213;-77
2021/07/30 03:48:29;;;;;;;11.50;10.40;;;13.60;99.90;;;;;;4933734;29;20215;-78
2021/07/30 03:50:56;;;;;;;11.00;10.00;;;13.60;99.90;;;;;;4935048;29;20206;-77
2021/07/30 03:53:23;;;;;;;10.60;9.50;;;13.60;99.90;;;;;;4939287;29;20245;-75
2021/07/30 03:55:50;;;;;;;10.97;9.90;;;13.50;99.90;;;;;;4943145;29;20207;-75
2021/07/30 03:58:18;;;;;;;9.43;8.43;;;13.50;99.90;;;;;;4947318;29;20206;-75
2021/07/30 04:00:45;;;;;;;10.80;9.80;;;13.50;99.90;;;;;;4938608;29;20565;-75
2021/07/30 04:03:11;;;;;;;10.50;9.50;;;13.50;99.90;;;;;;4943971;29;20330;-75
2021/07/30 04:05:38;;;;;;;11.93;10.93;;;13.50;99.90;;;;;;4947126;29;20198;-76
2021/07/30 04:08:06;;;;;;;14.97;11.60;;;13.50;99.90;;;;;;4941444;28;20956;-75
2021/07/30 04:10:33;;;;;;;12.97;11.87;;;13.50;99.90;;;;;;4947919;29;20186;-76
2021/07/30 04:13:00;;;;;;;13.13;11.73;;;13.50;99.90;;;;;;4943367;29;20341;-75
2021/07/30 04:15:28;;;;;;;13.07;11.77;;;13.50;99.90;;;;;;4945778;29;20218;-75
2021/07/30 04:17:55;;;;;;;14.00;12.60;;;13.50;99.90;;;;;;4946087;29;20201;-75
2021/07/30 04:20:21;;;;;;;13.20;12.00;;;13.60;99.90;;;;;;4947245;29;20232;-75
2021/07/30 04:22:48;;;;;;;14.03;12.73;;;13.60;99.90;;;;;;4945344;28;20240;-75
2021/07/30 04:25:15;;;;;;;13.47;12.20;;;13.50;99.90;;;;;;4919928;29;20262;-76
2021/07/30 04:27:42;;;;;;;13.30;11.90;;;13.50;99.90;;;;;;4948843;29;20212;-75
2021/07/30 04:30:10;;;;;;;13.43;12.23;;;13.50;99.90;;;;;;4941482;29;20200;-75
2021/07/30 04:32:38;;;;;;;14.10;11.90;;;13.70;99.90;;;;;;4934642;29;20239;-76
2021/07/30 04:35:05;;;;;;;11.80;10.80;;;13.70;99.90;;;;;;4935815;29;20197;-76
2021/07/30 04:37:32;;;;;;;13.93;12.70;;;13.70;99.90;;;;;;4943766;29;20208;-75
2021/07/30 04:39:59;;;;;;;13.60;12.50;;;13.80;99.90;;;;;;4951213;29;20201;-75
2021/07/30 04:42:27;;;;;;;14.13;13.03;;;13.90;99.90;;;;;;4941608;29;20221;-75
2021/07/30 04:44:53;;;;;;;13.63;12.57;;;13.90;99.90;;;;;;4938637;29;20208;-75
2021/07/30 04:47:20;;;;;;;13.60;12.50;;;14.00;99.90;;;;;;4943557;29;20202;-76
2021/07/30 04:49:48;;;;;;;14.30;13.10;;;14.00;99.90;;;;;;4946073;29;20582;-75
2021/07/30 04:52:15;;;;;;;14.00;12.80;;;14.10;99.90;;;;;;4931437;29;20222;-75
2021/07/30 04:54:42;;;;;;;16.20;14.60;;;14.20;99.90;;;;;;4939515;29;20204;-75
2021/07/30 04:57:09;;;;;;;14.40;13.30;;;14.30;99.90;;;;;;4940362;28;20823;-76
2021/07/30 04:59:36;;;;;;;14.00;12.90;;;14.40;99.90;;;;;;4940359;29;20196;-75
2021/07/30 05:02:06;;;;;;;13.87;12.70;;;14.50;99.90;;;;;;4945786;29;20218;-76
2021/07/30 05:04:33;;;;;;;9.37;8.47;;;14.60;99.90;;;;;;4942352;29;20217;-76
2021/07/30 05:07:01;;;;;;;11.63;9.43;;;14.70;99.90;;;;;;4939217;29;20203;-77
2021/07/30 05:09:28;;;;;;;10.07;8.57;;;14.80;99.90;;;;;;4938117;29;20214;-76
2021/07/30 05:11:55;;;;;;;10.73;9.80;;;14.90;99.90;;;;;;4941376;29;20196;-76
2021/07/30 05:14:22;;;;;;;11.47;10.47;;;15.00;99.90;;;;;;4927510;29;20192;-76
2021/07/30 05:16:48;;;;;;;11.77;10.60;;;15.10;99.90;;;;;;4941588;29;20269;-75
2021/07/30 05:19:15;;;;;;;13.70;12.70;;;15.20;99.90;;;;;;4945246;28;20188;-76
2021/07/30 05:21:42;;;;;;;13.43;12.43;;;15.30;99.90;;;;;;4944630;29;20204;-76
2021/07/30 05:24:10;;;;;;;13.87;12.73;;;15.50;99.90;;;;;;4945205;29;20222;-75
2021/07/30 05:26:37;;;;;;;13.97;12.83;;;15.60;99.90;;;;;;4943527;29;20199;-76
2021/07/30 05:29:07;;;;;;;13.43;12.43;;;15.80;99.90;;;;;;4938820;29;20219;-76
2021/07/30 05:31:34;;;;;;;13.40;12.40;;;15.90;99.90;;;;;;4940625;29;20204;-76
2021/07/30 05:34:01;;;;;;;13.10;12.10;;;16.10;99.90;;;;;;4929392;29;20224;-75
2021/07/30 05:36:27;;;;;;;14.03;13.03;;;16.20;99.90;;;;;;4948540;29;20207;-76
2021/07/30 05:38:54;;;;;;;13.87;12.80;;;16.40;99.90;;;;;;4937576;29;20563;-76
2021/07/30 05:41:23;;;;;;;10.20;9.33;;;16.60;99.90;;;;;;4931128;29;20216;-76
2021/07/30 05:43:50;;;;;;;13.20;12.13;;;16.70;99.90;;;;;;4941532;28;20604;-75
2021/07/30 05:46:19;;;;;;;14.00;13.00;;;16.90;99.90;;;;;;4927017;29;20734;-76
2021/07/30 05:48:47;;;;;;;12.07;10.50;;;17.10;99.90;;;;;;4934707;29;20217;-76
2021/07/30 05:51:14;;;;;;;13.33;12.33;;;17.20;99.90;;;;;;4934365;29;20215;-76
2021/07/30 05:53:41;;;;;;;13.97;12.70;;;17.70;99.90;;;;;;4939061;29;20214;-76
2021/07/30 05:56:08;;;;;;;12.70;11.50;;;18.30;99.90;;;;;;4945101;28;20256;-76
2021/07/30 05:58:36;;;;;;;12.80;11.73;;;18.80;99.90;;;;;;4942601;29;20196;-77
2021/07/30 06:01:03;;;;;;;11.30;10.50;;;19.00;99.90;;;;;;4944042;28;20217;-76
2021/07/30 06:03:30;;;;;;;12.63;11.63;;;19.00;99.90;;;;;;4946959;29;20589;-76
2021/07/30 06:05:57;;;;;;;9.73;8.93;;;19.00;99.90;;;;;;4937060;29;20197;-76
2021/07/30 06:08:23;;;;;;;10.57;9.77;;;19.00;99.90;;;;;;4927666;29;20203;-76
2021/07/30 06:10:50;;;;;;;10.37;9.00;;;18.90;99.90;;;;;;4940901;29;20203;-76
2021/07/30 06:13:17;;;;;;;12.50;11.53;;;18.80;99.90;;;;;;4943524;29;20218;-76
2021/07/30 06:15:45;;;;;;;12.70;11.70;;;18.80;99.90;;;;;;4941858;29;20203;-76
2021/07/30 06:18:12;;;;;;;7.33;6.63;;;18.90;99.90;;;;;;4937120;29;20191;-76
2021/07/30 06:20:39;;;;;;;12.57;11.57;;;19.10;99.90;;;;;;4942208;29;20197;-76
2021/07/30 06:23:06;;;;;;;12.13;10.97;;;19.20;99.90;;;;;;4964591;23;20228;-76
2021/07/30 06:25:33;;;;;;;11.83;10.93;;;19.10;99.90;;;;;;4946262;29;20208;-77
2021/07/30 06:28:01;;;;;;;12.80;11.80;;;19.10;99.90;;;;;;4938452;29;20200;-75
2021/07/30 06:30:28;;;;;;;13.00;12.00;;;19.00;99.90;;;;;;4946476;29;20222;-76
2021/07/30 06:32:56;;;;;;;9.73;8.73;;;19.20;99.90;;;;;;4939917;29;20216;-76
2021/07/30 06:35:26;;;;;;;12.40;11.37;;;19.50;99.90;;;;;;4941063;28;20263;-77
2021/07/30 06:37:53;;;;;;;10.03;9.00;;;19.90;99.90;;;;;;4942775;29;20206;-76
2021/07/30 06:40:20;;;;;;;11.77;10.87;;;20.20;99.90;;;;;;4941733;29;20281;-76
2021/07/30 06:42:47;;;;;;;6.70;5.83;;;20.60;99.90;;;;;;4945008;29;20220;-77
2021/07/30 06:45:13;;;;;;;8.73;6.67;;;20.90;99.90;;;;;;4943503;28;20242;-76
2021/07/30 06:47:40;;;;;;;9.77;8.97;;;21.30;99.90;;;;;;4942095;29;20268;-76
2021/07/30 06:50:09;;;;;;;12.20;11.10;;;21.70;99.90;;;;;;4941484;29;20214;-77
2021/07/30 06:52:36;;;;;;;10.70;9.70;;;21.90;99.90;;;;;;4944984;29;20242;-77
2021/07/30 06:55:04;;;;;;;10.33;9.63;;;22.20;99.90;;;;;;4940990;29;20198;-76
2021/07/30 06:57:30;;;;;;;7.43;6.73;;;22.50;99.90;;;;;;4950781;28;20251;-77
2021/07/30 06:59:58;;;;;;;10.97;10.07;;;22.70;99.90;;;;;;4934420;29;20214;-77
2021/07/30 07:02:25;;;;;;;11.57;10.67;;;22.90;99.90;;;;;;4942579;29;20195;-76
2021/07/30 07:04:52;;;;;;;8.57;7.67;;;23.00;99.90;;;;;;4944168;29;20219;-77
2021/07/30 07:07:20;;;;;;;9.90;7.60;;;23.10;99.90;;;;;;4957671;28;20211;-77
2021/07/30 07:09:47;;;;;;;11.83;10.77;;;23.20;99.90;;;;;;4942171;29;20282;-77
2021/07/30 07:12:13;;;;;;;12.77;11.67;;;23.60;99.90;;;;;;4954154;29;20195;-77
2021/07/30 07:14:40;;;;;;;11.60;10.77;;;23.60;99.90;;;;;;4947497;29;20202;-76
2021/07/30 07:17:07;;;;;;;11.77;10.70;;;23.90;99.90;;;;;;4946026;29;20249;-79
2021/07/30 07:19:34;;;;;;;10.30;9.50;;;24.00;99.90;;;;;;4949218;28;20719;-77
2021/07/30 07:22:01;;;;;;;9.50;8.50;;;24.30;99.90;;;;;;4945302;29;20205;-77
2021/07/30 07:24:29;;;;;;;10.27;9.27;;;24.60;99.90;;;;;;4953702;28;20234;-78
2021/07/30 07:26:56;;;;;;;10.37;9.57;;;24.70;99.90;;;;;;4953394;29;20193;-77
2021/07/30 07:29:23;;;;;;;11.83;10.93;;;24.80;99.90;;;;;;4953881;28;20210;-77
2021/07/30 07:31:50;;;;;;;11.83;10.90;;;25.10;99.90;;;;;;4952625;29;20273;-77
2021/07/30 07:34:17;;;;;;;11.00;10.10;;;25.30;99.90;;;;;;4951470;29;20761;-78
2021/07/30 07:36:43;;;;;;;7.57;5.73;;;25.70;99.90;;;;;;4941438;29;20203;-77
2021/07/30 07:39:10;;;;;;;9.67;8.87;;;25.60;99.90;;;;;;4942307;28;20186;-78
2021/07/30 07:41:38;;;;;;;7.37;6.67;;;26.00;99.90;;;;;;4943155;29;20727;-79
2021/07/30 07:44:07;;;;;;;6.40;5.57;;;26.10;99.90;;;;;;4933941;29;20214;-79
2021/07/30 07:46:35;;;;;;;6.60;6.00;;;26.30;99.90;;;;;;4942598;29;20198;-78
2021/07/30 07:49:02;;;;;;;10.43;9.53;;;26.50;99.90;;;;;;4942331;28;20199;-77
2021/07/30 07:51:29;;;;;;;11.40;10.57;;;26.60;99.90;;;;;;4941991;29;20203;-77
2021/07/30 07:53:55;;;;;;;11.90;10.90;;;26.60;99.90;;;;;;4941928;29;20226;-77
2021/07/30 07:56:22;;;;;;;11.23;10.43;;;26.60;99.90;;;;;;4942124;29;20277;-77
2021/07/30 07:58:50;;;;;;;11.30;10.30;;;26.60;99.90;;;;;;4944187;29;20210;-76
2021/07/30 08:01:17;;;;;;;11.70;10.80;;;26.50;99.90;;;;;;4940416;29;20267;-77
2021/07/30 08:03:46;;;;;;;10.73;9.93;;;26.50;99.90;;;;;;4941037;29;20563;-76
2021/07/30 08:06:17;;;;;;;11.37;10.50;;;26.70;99.90;;;;;;4942150;29;20199;-78
2021/07/30 08:08:44;;;;;;;12.03;11.13;;;27.00;99.90;;;;;;4942438;29;20265;-77
2021/07/30 08:11:11;;;;;;;11.77;10.87;;;27.20;99.90;;;;;;4940819;29;20238;-78
2021/07/30 08:13:38;;;;;;;12.00;11.00;;;27.40;99.90;;;;;;4945998;29;20226;-77
2021/07/30 08:16:07;;;;;;;11.03;10.23;;;27.90;99.90;;;;;;4940951;29;20273;-77
2021/07/30 08:18:33;;;;;;;11.03;10.23;;;28.30;99.90;;;;;;4944704;29;20675;-77
2021/07/30 08:21:00;;;;;;;11.53;10.70;;;28.40;99.90;;;;;;4942519;29;20202;-78
2021/07/30 08:23:27;;;;;;;11.37;10.47;;;28.70;99.90;;;;;;4943808;29;20253;-77
2021/07/30 08:25:54;;;;;;;12.50;11.50;;;28.70;99.90;;;;;;4942604;29;20206;-77
2021/07/30 08:28:21;;;;;;;12.23;11.13;;;28.60;99.90;;;;;;4943552;29;20567;-77
2021/07/30 08:30:48;;;;;;;9.93;9.20;;;28.70;99.90;;;;;;4938081;29;20207;-77
2021/07/30 08:33:16;;;;;;;9.80;8.90;;;29.00;99.90;;;;;;4958565;28;20718;-77
2021/07/30 08:35:43;;;;;;;9.10;8.40;;;29.30;99.90;;;;;;4946784;29;20273;-77
2021/07/30 08:38:10;;;;;;;10.30;9.53;;;29.40;99.90;;;;;;4946661;28;20273;-76
2021/07/30 08:40:39;;;;;;;10.60;9.80;;;29.40;99.90;;;;;;4946109;29;20222;-77
2021/07/30 08:43:05;;;;;;;10.83;10.00;;;29.40;99.90;;;;;;4945457;28;20242;-77
2021/07/30 08:45:32;;;;;;;11.60;10.80;;;29.50;99.90;;;;;;4943999;29;20218;-78
2021/07/30 08:48:01;;;;;;;9.70;8.80;;;29.70;99.90;;;;;;4944945;29;20203;-78
2021/07/30 08:50:31;;;;;;;9.70;9.00;;;29.80;99.90;;;;;;4948037;29;20297;-77
2021/07/30 08:53:03;;;;;;;11.40;10.40;;;29.80;99.90;;;;;;4934854;29;20241;-78
2021/07/30 08:55:31;;;;;;;9.60;8.80;;;30.00;99.90;;;;;;4948365;29;20205;-77
2021/07/30 08:57:58;;;;;;;10.73;9.97;;;30.20;99.90;;;;;;4940985;29;20589;-78
2021/07/30 09:00:25;;;;;;;11.37;10.47;;;30.20;99.90;;;;;;4945297;29;20632;-77
2021/07/30 09:02:54;;;;;;;11.40;10.50;;;30.30;99.90;;;;;;4939986;29;20238;-77
2021/07/30 09:05:33;;;;;;;11.00;10.10;;;30.40;99.90;;;;;;4946957;29;20685;-77
2021/07/30 09:08:01;;;;;;;11.07;10.27;;;30.70;99.90;;;;;;4935220;29;20566;-79
2021/07/30 09:10:33;;;;;;;10.90;10.00;;;30.70;99.90;;;;;;4940300;29;20712;-77
2021/07/30 09:13:17;;;;;;;10.33;9.60;;;30.80;99.90;;;;;;4938419;29;20230;-76
2021/07/30 09:15:46;;;;;;;10.60;9.80;;;30.90;99.90;;;;;;4943766;28;20757;-77
2021/07/30 09:18:26;;;;;;;10.70;9.90;;;30.80;99.90;;;;;;4943782;28;20211;-77
2021/07/30 09:20:55;;;;;;;11.13;10.23;;;30.80;99.90;;;;;;4947354;29;20213;-78
2021/07/30 09:23:22;;;;;;;11.77;10.83;;;31.00;99.90;;;;;;4942743;29;20262;-78
2021/07/30 09:25:49;;;;;;;12.33;11.43;;;30.80;99.90;;;;;;4946689;29;20191;-77
2021/07/30 09:28:15;;;;;;;11.17;10.37;;;31.00;99.90;;;;;;4944482;29;20202;-77
2021/07/30 09:30:42;;;;;;;11.50;10.37;;;31.00;99.90;;;;;;4944322;29;20207;-77
2021/07/30 09:33:09;;;;;;;10.43;9.70;;;31.30;99.90;;;;;;4943075;29;20231;-77
2021/07/30 09:35:59;;;;;;;10.43;9.73;;;31.30;99.90;;;;;;4945992;29;20202;-77
2021/07/30 09:38:27;;;;;;;10.33;9.53;;;31.20;99.90;;;;;;4944839;29;20762;-77
2021/07/30 09:41:15;;;;;;;11.10;10.30;;;31.30;99.90;;;;;;4940180;28;20315;-77
2021/07/30 09:43:45;;;;;;;10.87;10.07;;;31.20;99.90;;;;;;4945203;28;20329;-78
2021/07/30 09:46:14;;;;;;;11.43;10.57;;;31.30;99.90;;;;;;4942629;29;20203;-77
2021/07/30 09:48:49;;;;;;;11.57;10.77;;;31.30;99.90;;;;;;4939779;29;20237;-77
2021/07/30 09:51:17;;;;;;;11.40;10.40;;;31.20;99.90;;;;;;4947216;29;20264;-77
2021/07/30 09:53:45;;;;;;;11.17;10.37;;;31.20;99.90;;;;;;4941666;29;20215;-78
2021/07/30 09:56:14;;;;;;;11.43;10.60;;;31.40;99.90;;;;;;4943057;29;20207;-78
2021/07/30 09:58:42;;;;;;;11.70;10.90;;;31.40;99.90;;;;;;4942585;29;20295;-77
2021/07/30 10:01:14;;;;;;;11.93;11.13;;;31.40;99.90;;;;;;4943527;29;20191;-77
2021/07/30 10:03:44;;;;;;;11.03;10.23;;;31.60;99.90;;;;;;4945136;29;20598;-77
2021/07/30 10:06:13;;;;;;;11.67;10.87;;;31.60;99.90;;;;;;4944119;29;20637;-78
2021/07/30 10:08:42;;;;;;;11.57;10.67;;;31.60;99.90;;;;;;4944820;29;20683;-78
2021/07/30 10:11:11;;;;;;;11.40;10.40;;;31.60;99.90;;;;;;4939655;29;20223;-77
2021/07/30 10:13:47;;;;;;;12.07;11.17;;;31.20;99.60;;;;;;4945932;29;20210;-78
2021/07/30 10:16:15;;;;;;;11.60;10.80;;;31.30;99.70;;;;;;4943659;29;20197;-78
2021/07/30 10:18:44;;;;;;;11.20;10.40;;;31.30;99.90;;;;;;4938703;29;20210;-78
2021/07/30 10:21:14;;;;;;;11.07;10.30;;;31.50;99.90;;;;;;4941703;29;20195;-78
2021/07/30 10:23:46;;;;;;;10.93;10.13;;;31.40;99.90;;;;;;4944562;29;20227;-78
2021/07/30 10:26:14;;;;;;;11.50;10.60;;;31.30;99.90;;;;;;4941761;29;20194;-78
2021/07/30 10:28:41;;;;;;;10.93;10.13;;;31.40;99.80;;;;;;4941966;29;20214;-77
2021/07/30 10:31:10;;;;;;;11.20;10.30;;;31.50;99.90;;;;;;4943230;29;20270;-77
2021/07/30 10:33:48;;;;;;;10.90;10.10;;;31.30;99.90;;;;;;4943583;29;20235;-78
2021/07/30 10:36:33;;;;;;;10.67;9.87;;;31.50;99.90;;;;;;4943220;29;20309;-77
2021/07/30 10:39:09;;;;;;;10.93;10.13;;;31.40;99.90;;;;;;4940838;29;20206;-77
2021/07/30 10:41:36;;;;;;;10.93;10.13;;;31.30;99.90;;;;;;4943673;29;20186;-78
2021/07/30 10:44:08;;;;;;;10.90;10.10;;;31.00;99.90;;;;;;4944392;29;20223;-77
2021/07/30 10:46:35;;;;;;;11.17;10.27;;;30.90;99.90;;;;;;4944907;29;20202;-76
2021/07/30 10:49:01;;;;;;;11.80;10.87;;;30.80;99.90;;;;;;4938900;29;20198;-77
2021/07/30 10:51:29;;;;;;;11.00;10.20;;;30.70;99.90;;;;;;4944875;29;20274;-79
2021/07/30 10:53:57;;;;;;;10.90;10.10;;;30.50;99.90;;;;;;4940417;28;20233;-77
2021/07/30 10:56:50;;;;;;;11.30;10.30;;;30.20;99.90;;;;;;4939624;28;20664;-77
2021/07/30 10:59:20;;;;;;;10.63;9.87;;;30.20;99.90;;;;;;4936393;29;20204;-78
2021/07/30 11:01:58;;;;;;;10.87;10.00;;;30.30;99.90;;;;;;4943326;29;20244;-76
2021/07/30 11:04:25;;;;;;;11.00;10.20;;;30.30;99.90;;;;;;4941471;29;20225;-77
2021/07/30 11:06:57;;;;;;;11.23;10.33;;;30.30;99.90;;;;;;4941905;29;20206;-77
2021/07/30 11:09:36;;;;;;;11.13;10.23;;;30.30;99.90;;;;;;4942771;29;20195;-77
2021/07/30 11:12:13;;;;;;;11.53;10.53;;;30.30;99.90;;;;;;4947987;28;20215;-77
2021/07/30 11:14:48;;;;;;;11.50;10.70;;;30.20;99.90;;;;;;4943636;29;20211;-78
2021/07/30 11:17:15;;;;;;;11.67;10.87;;;30.20;99.90;;;;;;4935724;29;20245;-77
2021/07/30 11:19:45;;;;;;;11.77;10.83;;;30.20;99.90;;;;;;4942716;29;20206;-77
2021/07/30 11:22:13;;;;;;;11.77;10.77;;;29.80;99.90;;;;;;4942526;29;20192;-77
2021/07/30 11:24:42;;;;;;;10.77;9.97;;;29.70;99.90;;;;;;4944204;29;20222;-77
2021/07/30 11:27:12;;;;;;;10.70;9.90;;;29.70;99.90;;;;;;4940071;29;20209;-77
2021/07/30 11:29:43;;;;;;;11.07;10.17;;;29.80;99.90;;;;;;4944604;28;20206;-78
2021/07/30 11:32:13;;;;;;;11.20;10.17;;;29.80;99.90;;;;;;4941484;29;20222;-77
2021/07/30 11:34:42;;;;;;;11.00;10.20;;;29.80;99.90;;;;;;4938654;29;20302;-77
2021/07/30 11:37:10;;;;;;;11.53;10.70;;;30.00;99.90;;;;;;4940664;29;20361;-77
2021/07/30 11:39:39;;;;;;;10.50;9.70;;;29.90;99.90;;;;;;4943093;29;20194;-78
2021/07/30 11:42:07;;;;;;;10.90;9.87;;;29.80;99.90;;;;;;4945679;28;20217;-78
2021/07/30 11:44:46;;;;;;;10.87;9.97;;;29.70;99.90;;;;;;4959869;28;20722;-78
2021/07/30 11:47:14;;;;;;;11.37;10.47;;;29.60;99.90;;;;;;4942190;29;20202;-78
2021/07/30 11:49:42;;;;;;;11.60;10.70;;;29.40;99.90;;;;;;4942277;29;20203;-79
2021/07/30 11:52:18;;;;;;;11.17;10.37;;;29.40;99.90;;;;;;4944073;29;20278;-77
2021/07/30 11:54:45;;;;;;;10.63;9.90;;;29.40;99.90;;;;;;4942539;29;20206;-77
2021/07/30 11:57:24;;;;;;;10.33;9.60;;;29.50;99.90;;;;;;4938404;29;20272;-78
2021/07/30 11:59:52;;;;;;;10.07;9.37;;;29.50;99.90;;;;;;4957064;28;21600;-77
2021/07/30 12:02:19;;;;;;;10.73;9.93;;;29.50;99.90;;;;;;4941687;29;20190;-77
2021/07/30 12:04:50;;;;;;;10.30;9.50;;;29.60;99.90;;;;;;4953999;28;20199;-77
2021/07/30 12:07:20;;;;;;;10.57;9.77;;;29.60;99.90;;;;;;4941843;28;20269;-77
2021/07/30 12:09:50;;;;;;;10.37;9.57;;;29.40;99.90;;;;;;4946884;29;20594;-78
2021/07/30 12:12:17;;;;;;;9.97;9.17;;;29.30;99.90;;;;;;4945795;29;20211;-77
2021/07/30 12:14:48;;;;;;;10.73;9.90;;;29.30;99.90;;;;;;4945932;29;20570;-76
2021/07/30 12:17:17;;;;;;;11.27;10.37;;;29.40;99.90;;;;;;4946213;29;20199;-79
2021/07/30 12:19:55;;;;;;;11.77;10.77;;;29.30;99.90;;;;;;4948568;29;20198;-78
2021/07/30 12:22:33;;;;;;;11.30;10.40;;;29.20;99.90;;;;;;4948668;29;20190;-75
2021/07/30 12:25:00;;;;;;;11.80;10.80;;;29.20;99.90;;;;;;4966705;23;20230;-77
2021/07/30 12:27:27;;;;;;;11.40;10.60;;;29.30;99.90;;;;;;4958331;29;20230;-76
2021/07/30 12:29:54;;;;;;;12.47;11.50;;;29.10;99.90;;;;;;4951013;28;20202;-77
2021/07/30 12:32:23;;;;;;;12.70;11.70;;;29.10;99.90;;;;;;4950948;28;20215;-77
2021/07/30 12:34:55;;;;;;;11.53;10.63;;;29.30;99.90;;;;;;4950715;29;20692;-77
2021/07/30 12:37:22;;;;;;;6.27;5.67;;;29.30;99.90;;;;;;4945720;29;20192;-77
2021/07/30 12:39:51;;;;;;;6.77;5.83;;;29.40;99.90;;;;;;4948444;29;20202;-77